EZY69UK EDNY-EGKK
Flight info
| Callsign | EZY69UK |
|---|---|
| Flight time | 1h 23m |
| Altitude | 34000 |
| Route | TRA1W TRA L856 HOC DCT LUL DCT RLP DCT ROTSI DCT KOTUN DCT NINAL DCT KESAX DCT KUNAV |
| Aircraft | A320/M-SDE2E3FGHIJ1RWXYZ/LB1 |
Departure
| Time | 2026-05-05 12:30 |
|---|---|
| Airport | Bodensee Airport Friedrichshafen (EDNY) |
Arrival
| Time | 2026-05-05 13:53 |
|---|---|
| Airport | London Gatwick Airport (EGKK) |
| Time | Latitude | Longitude | Altitude | Speed | Heading |
|---|---|---|---|---|---|
| 2026-05-05 12:02 | 47.67337 | 9.52306 | 1368 ft | 0 kts | 174° |
| 2026-05-05 12:23 | 47.67343 | 9.52306 | 1368 ft | 4 kts | 171° |
| 2026-05-05 12:23 | 47.67367 | 9.52293 | 1365 ft | 4 kts | 136° |
| 2026-05-05 12:23 | 47.67378 | 9.52264 | 1366 ft | 4 kts | 82° |
| 2026-05-05 12:24 | 47.67376 | 9.52249 | 1367 ft | 0 kts | 60° |
| 2026-05-05 12:26 | 47.67380 | 9.52259 | 1367 ft | 3 kts | 60° |
| 2026-05-05 12:26 | 47.67389 | 9.52284 | 1367 ft | 2 kts | 60° |
| 2026-05-05 12:27 | 47.67414 | 9.52348 | 1369 ft | 10 kts | 60° |
| 2026-05-05 12:27 | 47.67446 | 9.52430 | 1369 ft | 9 kts | 60° |
| 2026-05-05 12:27 | 47.67476 | 9.52508 | 1369 ft | 9 kts | 60° |
| 2026-05-05 12:27 | 47.67519 | 9.52580 | 1370 ft | 12 kts | 23° |
| 2026-05-05 12:28 | 47.67608 | 9.52538 | 1373 ft | 19 kts | 327° |
| 2026-05-05 12:28 | 47.67634 | 9.52443 | 1377 ft | 10 kts | 242° |
| 2026-05-05 12:28 | 47.67621 | 9.52410 | 1374 ft | 2 kts | 239° |
| 2026-05-05 12:28 | 47.67617 | 9.52401 | 1375 ft | 1 kts | 239° |
| 2026-05-05 12:29 | 47.67606 | 9.52373 | 1374 ft | 16 kts | 240° |
| 2026-05-05 12:29 | 47.67411 | 9.51869 | 1373 ft | 92 kts | 240° |
| 2026-05-05 12:29 | 47.66991 | 9.50786 | 1376 ft | 148 kts | 240° |
| 2026-05-05 12:29 | 47.66445 | 9.49395 | 1896 ft | 157 kts | 239° |
| 2026-05-05 12:30 | 47.65901 | 9.47984 | 2638 ft | 163 kts | 242° |
| 2026-05-05 12:30 | 47.65309 | 9.46415 | 2930 ft | 185 kts | 241° |
| 2026-05-05 12:30 | 47.64635 | 9.44692 | 3293 ft | 199 kts | 241° |
| 2026-05-05 12:30 | 47.63929 | 9.42887 | 3821 ft | 206 kts | 240° |
| 2026-05-05 12:31 | 47.63216 | 9.41033 | 4356 ft | 209 kts | 244° |
| 2026-05-05 12:31 | 47.62947 | 9.38922 | 4871 ft | 214 kts | 276° |
| 2026-05-05 12:31 | 47.63562 | 9.36909 | 5441 ft | 222 kts | 311° |
| 2026-05-05 12:31 | 47.64832 | 9.35587 | 5999 ft | 226 kts | 328° |
| 2026-05-05 12:32 | 47.66229 | 9.34414 | 6391 ft | 239 kts | 328° |
| 2026-05-05 12:32 | 47.67719 | 9.33164 | 6958 ft | 249 kts | 328° |
| 2026-05-05 12:32 | 47.69235 | 9.31880 | 7769 ft | 253 kts | 327° |
| 2026-05-05 12:32 | 47.70852 | 9.30746 | 8520 ft | 267 kts | 337° |
| 2026-05-05 12:33 | 47.72678 | 9.29774 | 8923 ft | 290 kts | 338° |
| 2026-05-05 12:33 | 47.74623 | 9.28754 | 9601 ft | 300 kts | 338° |
| 2026-05-05 12:33 | 47.76547 | 9.27463 | 10168 ft | 312 kts | 326° |
| 2026-05-05 12:33 | 47.78324 | 9.25458 | 10441 ft | 330 kts | 312° |
| 2026-05-05 12:34 | 47.79777 | 9.22780 | 11030 ft | 335 kts | 298° |
| 2026-05-05 12:34 | 47.80936 | 9.19769 | 11832 ft | 337 kts | 296° |
| 2026-05-05 12:34 | 47.81985 | 9.16647 | 12638 ft | 337 kts | 288° |
| 2026-05-05 12:34 | 47.82571 | 9.13324 | 13417 ft | 336 kts | 275° |
| 2026-05-05 12:35 | 47.82657 | 9.09849 | 14106 ft | 337 kts | 263° |
| 2026-05-05 12:35 | 47.82228 | 9.06426 | 14766 ft | 338 kts | 252° |
| 2026-05-05 12:35 | 47.81519 | 9.03068 | 15426 ft | 342 kts | 250° |
| 2026-05-05 12:35 | 47.80792 | 8.99629 | 16096 ft | 346 kts | 251° |
| 2026-05-05 12:36 | 47.80073 | 8.96198 | 16742 ft | 350 kts | 250° |
| 2026-05-05 12:36 | 47.79362 | 8.92779 | 17375 ft | 353 kts | 250° |
| 2026-05-05 12:36 | 47.78620 | 8.89275 | 18019 ft | 357 kts | 250° |
| 2026-05-05 12:36 | 47.77875 | 8.85725 | 18592 ft | 362 kts | 250° |
| 2026-05-05 12:37 | 47.77124 | 8.82142 | 19114 ft | 365 kts | 250° |
| 2026-05-05 12:37 | 47.76358 | 8.78516 | 19669 ft | 369 kts | 250° |
| 2026-05-05 12:37 | 47.75587 | 8.74865 | 20219 ft | 372 kts | 250° |
| 2026-05-05 12:37 | 47.74809 | 8.71182 | 20759 ft | 375 kts | 250° |
| 2026-05-05 12:38 | 47.74021 | 8.67473 | 21289 ft | 379 kts | 249° |
| 2026-05-05 12:38 | 47.73223 | 8.63727 | 21831 ft | 382 kts | 249° |
| 2026-05-05 12:38 | 47.72420 | 8.59957 | 22357 ft | 385 kts | 249° |
| 2026-05-05 12:38 | 47.71609 | 8.56152 | 22882 ft | 388 kts | 249° |
| 2026-05-05 12:39 | 47.70796 | 8.52317 | 23417 ft | 391 kts | 250° |
| 2026-05-05 12:39 | 47.70239 | 8.48331 | 23845 ft | 399 kts | 261° |
| 2026-05-05 12:39 | 47.70264 | 8.44184 | 24270 ft | 407 kts | 274° |
| 2026-05-05 12:39 | 47.70927 | 8.40060 | 24717 ft | 415 kts | 287° |
| 2026-05-05 12:40 | 47.72217 | 8.36193 | 25177 ft | 422 kts | 299° |
| 2026-05-05 12:40 | 47.73821 | 8.32516 | 25598 ft | 426 kts | 300° |
| 2026-05-05 12:40 | 47.75451 | 8.28821 | 25993 ft | 429 kts | 300° |
| 2026-05-05 12:40 | 47.77086 | 8.25088 | 26377 ft | 432 kts | 300° |
| 2026-05-05 12:41 | 47.78725 | 8.21322 | 26755 ft | 435 kts | 300° |
| 2026-05-05 12:41 | 47.80375 | 8.17534 | 27128 ft | 438 kts | 300° |
| 2026-05-05 12:41 | 47.82035 | 8.13707 | 27495 ft | 441 kts | 300° |
| 2026-05-05 12:41 | 47.83709 | 8.09857 | 27868 ft | 444 kts | 300° |
| 2026-05-05 12:42 | 47.85390 | 8.05980 | 28217 ft | 448 kts | 300° |
| 2026-05-05 12:42 | 47.87083 | 8.02071 | 28597 ft | 451 kts | 300° |
| 2026-05-05 12:42 | 47.88788 | 7.98125 | 28958 ft | 455 kts | 299° |
| 2026-05-05 12:42 | 47.90494 | 7.94144 | 29365 ft | 458 kts | 299° |
| 2026-05-05 12:43 | 47.92216 | 7.90138 | 29751 ft | 461 kts | 300° |
| 2026-05-05 12:43 | 47.93958 | 7.86102 | 30052 ft | 464 kts | 300° |
| 2026-05-05 12:43 | 47.95704 | 7.82051 | 30346 ft | 466 kts | 299° |
| 2026-05-05 12:43 | 47.97457 | 7.77968 | 30588 ft | 468 kts | 299° |
| 2026-05-05 12:44 | 47.99212 | 7.73859 | 30856 ft | 471 kts | 299° |
| 2026-05-05 12:44 | 48.00976 | 7.69727 | 31187 ft | 471 kts | 299° |
| 2026-05-05 12:44 | 48.02733 | 7.65600 | 31635 ft | 469 kts | 299° |
| 2026-05-05 12:44 | 48.04480 | 7.61498 | 32070 ft | 467 kts | 299° |
| 2026-05-05 12:45 | 48.06227 | 7.57408 | 32527 ft | 465 kts | 299° |
| 2026-05-05 12:45 | 48.07956 | 7.53340 | 32979 ft | 463 kts | 299° |
| 2026-05-05 12:45 | 48.09676 | 7.49266 | 33405 ft | 462 kts | 299° |
| 2026-05-05 12:45 | 48.11384 | 7.45228 | 33791 ft | 456 kts | 299° |
| 2026-05-05 12:46 | 48.14735 | 7.37303 | 33864 ft | 447 kts | 299° |
| 2026-05-05 12:46 | 48.18042 | 7.29445 | 33864 ft | 445 kts | 299° |
| 2026-05-05 12:47 | 48.21347 | 7.21598 | 33862 ft | 445 kts | 299° |
| 2026-05-05 12:47 | 48.24653 | 7.13688 | 33877 ft | 449 kts | 299° |
| 2026-05-05 12:48 | 48.27954 | 7.05803 | 33881 ft | 449 kts | 299° |
| 2026-05-05 12:48 | 48.31269 | 6.97838 | 33892 ft | 449 kts | 299° |
| 2026-05-05 12:49 | 48.34575 | 6.89888 | 33896 ft | 448 kts | 299° |
| 2026-05-05 12:49 | 48.37870 | 6.81924 | 33909 ft | 448 kts | 299° |
| 2026-05-05 12:50 | 48.41149 | 6.73961 | 33894 ft | 448 kts | 299° |
| 2026-05-05 12:50 | 48.44432 | 6.65980 | 33893 ft | 448 kts | 299° |
| 2026-05-05 12:51 | 48.47706 | 6.58013 | 33878 ft | 447 kts | 298° |
| 2026-05-05 12:51 | 48.50974 | 6.50028 | 33871 ft | 448 kts | 298° |
| 2026-05-05 12:52 | 48.54237 | 6.42015 | 33870 ft | 448 kts | 298° |
| 2026-05-05 12:52 | 48.57502 | 6.34004 | 33861 ft | 449 kts | 298° |
| 2026-05-05 12:53 | 48.60759 | 6.25970 | 33858 ft | 448 kts | 298° |
| 2026-05-05 12:53 | 48.64004 | 6.17935 | 33857 ft | 448 kts | 298° |
| 2026-05-05 12:54 | 48.68860 | 6.05866 | 33868 ft | 448 kts | 298° |
| 2026-05-05 12:55 | 48.72099 | 5.97812 | 33864 ft | 448 kts | 298° |
| 2026-05-05 12:55 | 48.75319 | 5.89745 | 33857 ft | 448 kts | 298° |
| 2026-05-05 12:56 | 48.78539 | 5.81667 | 33858 ft | 448 kts | 298° |
| 2026-05-05 12:56 | 48.81755 | 5.73574 | 33860 ft | 448 kts | 298° |
| 2026-05-05 12:57 | 48.84967 | 5.65476 | 33878 ft | 448 kts | 299° |
| 2026-05-05 12:57 | 48.88153 | 5.57414 | 33859 ft | 448 kts | 299° |
| 2026-05-05 12:58 | 48.91357 | 5.49279 | 33857 ft | 449 kts | 298° |
| 2026-05-05 12:58 | 48.94559 | 5.41125 | 33855 ft | 449 kts | 298° |
| 2026-05-05 12:59 | 48.97752 | 5.32971 | 33841 ft | 448 kts | 298° |
| 2026-05-05 12:59 | 49.00932 | 5.24814 | 33860 ft | 448 kts | 298° |
| 2026-05-05 13:00 | 49.05692 | 5.12578 | 33846 ft | 447 kts | 298° |
| 2026-05-05 13:01 | 49.12026 | 4.96220 | 33845 ft | 447 kts | 298° |
| 2026-05-05 13:01 | 49.15175 | 4.88023 | 33841 ft | 448 kts | 298° |
| 2026-05-05 13:02 | 49.18330 | 4.79826 | 33860 ft | 447 kts | 298° |
| 2026-05-05 13:02 | 49.21463 | 4.71612 | 33867 ft | 447 kts | 297° |
| 2026-05-05 13:03 | 49.24587 | 4.63400 | 33856 ft | 446 kts | 297° |
| 2026-05-05 13:03 | 49.27711 | 4.55205 | 33854 ft | 445 kts | 297° |
| 2026-05-05 13:04 | 49.30812 | 4.47005 | 33858 ft | 445 kts | 297° |
| 2026-05-05 13:04 | 49.33912 | 4.38799 | 33868 ft | 444 kts | 297° |
| 2026-05-05 13:05 | 49.37006 | 4.30602 | 33860 ft | 444 kts | 297° |
| 2026-05-05 13:05 | 49.40088 | 4.22396 | 33852 ft | 444 kts | 297° |
| 2026-05-05 13:06 | 49.43149 | 4.14169 | 33854 ft | 444 kts | 297° |
| 2026-05-05 13:06 | 49.46222 | 4.05942 | 33859 ft | 444 kts | 297° |
| 2026-05-05 13:07 | 49.49295 | 3.97705 | 33856 ft | 444 kts | 297° |
| 2026-05-05 13:07 | 49.52355 | 3.89473 | 33853 ft | 443 kts | 297° |
| 2026-05-05 13:08 | 49.55391 | 3.81213 | 33855 ft | 443 kts | 297° |
| 2026-05-05 13:08 | 49.58411 | 3.73039 | 33862 ft | 442 kts | 296° |
| 2026-05-05 13:09 | 49.61440 | 3.64792 | 33871 ft | 442 kts | 297° |
| 2026-05-05 13:09 | 49.64466 | 3.56541 | 33868 ft | 442 kts | 297° |
| 2026-05-05 13:10 | 49.67479 | 3.48269 | 33870 ft | 442 kts | 297° |
| 2026-05-05 13:10 | 49.70483 | 3.39983 | 33856 ft | 442 kts | 297° |
| 2026-05-05 13:11 | 49.73495 | 3.31686 | 33860 ft | 443 kts | 297° |
| 2026-05-05 13:11 | 49.76499 | 3.23369 | 33871 ft | 443 kts | 296° |
| 2026-05-05 13:12 | 49.79495 | 3.15043 | 33896 ft | 443 kts | 297° |
| 2026-05-05 13:12 | 49.82480 | 3.06714 | 33900 ft | 442 kts | 297° |
| 2026-05-05 13:13 | 49.85462 | 2.98400 | 33897 ft | 441 kts | 297° |
| 2026-05-05 13:13 | 49.88428 | 2.90099 | 33899 ft | 440 kts | 296° |
| 2026-05-05 13:14 | 49.91376 | 2.81798 | 33899 ft | 439 kts | 296° |
| 2026-05-05 13:14 | 49.94319 | 2.73505 | 33882 ft | 438 kts | 296° |
| 2026-05-05 13:15 | 49.97244 | 2.65216 | 33904 ft | 437 kts | 296° |
| 2026-05-05 13:15 | 50.00157 | 2.56940 | 33906 ft | 436 kts | 296° |
| 2026-05-05 13:16 | 50.03042 | 2.48734 | 33902 ft | 435 kts | 296° |
| 2026-05-05 13:16 | 50.05465 | 2.41803 | 33890 ft | 435 kts | 296° |
| 2026-05-05 13:17 | 50.08814 | 2.32196 | 33884 ft | 434 kts | 296° |
| 2026-05-05 13:17 | 50.11217 | 2.25279 | 33763 ft | 431 kts | 296° |
| 2026-05-05 13:18 | 50.12634 | 2.21205 | 33482 ft | 425 kts | 296° |
| 2026-05-05 13:18 | 50.14032 | 2.17160 | 33211 ft | 422 kts | 296° |
| 2026-05-05 13:18 | 50.15418 | 2.13143 | 32934 ft | 420 kts | 296° |
| 2026-05-05 13:18 | 50.16801 | 2.09135 | 32662 ft | 419 kts | 296° |
| 2026-05-05 13:19 | 50.18183 | 2.05148 | 32363 ft | 415 kts | 296° |
| 2026-05-05 13:19 | 50.19545 | 2.01194 | 31872 ft | 413 kts | 296° |
| 2026-05-05 13:19 | 50.20894 | 1.97260 | 31387 ft | 410 kts | 296° |
| 2026-05-05 13:19 | 50.22234 | 1.93350 | 30907 ft | 407 kts | 296° |
| 2026-05-05 13:20 | 50.23553 | 1.89515 | 30439 ft | 405 kts | 296° |
| 2026-05-05 13:20 | 50.24885 | 1.85647 | 29971 ft | 403 kts | 296° |
| 2026-05-05 13:20 | 50.26201 | 1.81798 | 29470 ft | 400 kts | 296° |
| 2026-05-05 13:20 | 50.27500 | 1.77982 | 29009 ft | 396 kts | 296° |
| 2026-05-05 13:21 | 50.28791 | 1.74204 | 28557 ft | 392 kts | 296° |
| 2026-05-05 13:21 | 50.30058 | 1.70457 | 28108 ft | 388 kts | 296° |
| 2026-05-05 13:21 | 50.31317 | 1.66743 | 27674 ft | 385 kts | 296° |
| 2026-05-05 13:21 | 50.32564 | 1.63060 | 27227 ft | 382 kts | 296° |
| 2026-05-05 13:22 | 50.33800 | 1.59407 | 26785 ft | 379 kts | 296° |
| 2026-05-05 13:22 | 50.35033 | 1.55777 | 26329 ft | 377 kts | 296° |
| 2026-05-05 13:22 | 50.36259 | 1.52158 | 25882 ft | 375 kts | 296° |
| 2026-05-05 13:22 | 50.37469 | 1.48572 | 25484 ft | 371 kts | 296° |
| 2026-05-05 13:23 | 50.38668 | 1.44992 | 25029 ft | 370 kts | 295° |
| 2026-05-05 13:23 | 50.39867 | 1.41422 | 24543 ft | 370 kts | 296° |
| 2026-05-05 13:23 | 50.41068 | 1.37863 | 24088 ft | 369 kts | 295° |
| 2026-05-05 13:23 | 50.42255 | 1.34311 | 23612 ft | 368 kts | 294° |
| 2026-05-05 13:24 | 50.43441 | 1.30753 | 23093 ft | 367 kts | 296° |
| 2026-05-05 13:24 | 50.44622 | 1.27222 | 22643 ft | 364 kts | 296° |
| 2026-05-05 13:24 | 50.45794 | 1.23707 | 22191 ft | 362 kts | 296° |
| 2026-05-05 13:24 | 50.46957 | 1.20218 | 21741 ft | 360 kts | 296° |
| 2026-05-05 13:25 | 50.48115 | 1.16749 | 21300 ft | 358 kts | 296° |
| 2026-05-05 13:25 | 50.49262 | 1.13289 | 20860 ft | 357 kts | 296° |
| 2026-05-05 13:25 | 50.50405 | 1.09842 | 20432 ft | 355 kts | 296° |
| 2026-05-05 13:25 | 50.51650 | 1.06500 | 19995 ft | 354 kts | 306° |
| 2026-05-05 13:26 | 50.53247 | 1.03577 | 19576 ft | 353 kts | 313° |
| 2026-05-05 13:26 | 50.54927 | 1.00776 | 19153 ft | 351 kts | 314° |
| 2026-05-05 13:26 | 50.56595 | 0.97972 | 18727 ft | 350 kts | 314° |
| 2026-05-05 13:26 | 50.58235 | 0.95214 | 18315 ft | 349 kts | 315° |
| 2026-05-05 13:27 | 50.59912 | 0.92389 | 17858 ft | 348 kts | 314° |
| 2026-05-05 13:27 | 50.61561 | 0.89612 | 17453 ft | 345 kts | 314° |
| 2026-05-05 13:27 | 50.63191 | 0.86852 | 17050 ft | 343 kts | 314° |
| 2026-05-05 13:27 | 50.64781 | 0.84142 | 16654 ft | 341 kts | 314° |
| 2026-05-05 13:28 | 50.66387 | 0.81418 | 16259 ft | 339 kts | 314° |
| 2026-05-05 13:28 | 50.67971 | 0.78672 | 15845 ft | 338 kts | 310° |
| 2026-05-05 13:28 | 50.69465 | 0.75734 | 15340 ft | 340 kts | 309° |
| 2026-05-05 13:28 | 50.70938 | 0.72817 | 14923 ft | 339 kts | 309° |
| 2026-05-05 13:29 | 50.72413 | 0.69923 | 14520 ft | 338 kts | 310° |
| 2026-05-05 13:29 | 50.73862 | 0.67075 | 14139 ft | 337 kts | 310° |
| 2026-05-05 13:29 | 50.75331 | 0.64202 | 13769 ft | 335 kts | 310° |
| 2026-05-05 13:29 | 50.76783 | 0.61336 | 13362 ft | 333 kts | 309° |
| 2026-05-05 13:30 | 50.78225 | 0.58497 | 12977 ft | 330 kts | 310° |
| 2026-05-05 13:30 | 50.79653 | 0.55688 | 12585 ft | 327 kts | 309° |
| 2026-05-05 13:30 | 50.81069 | 0.52887 | 12202 ft | 325 kts | 309° |
| 2026-05-05 13:30 | 50.82478 | 0.50108 | 11821 ft | 322 kts | 310° |
| 2026-05-05 13:31 | 50.83861 | 0.47391 | 11664 ft | 313 kts | 309° |
| 2026-05-05 13:31 | 50.85202 | 0.44745 | 11494 ft | 304 kts | 310° |
| 2026-05-05 13:31 | 50.86516 | 0.42150 | 11178 ft | 299 kts | 310° |
| 2026-05-05 13:31 | 50.87803 | 0.39595 | 10573 ft | 296 kts | 309° |
| 2026-05-05 13:32 | 50.89082 | 0.37062 | 9966 ft | 293 kts | 309° |
| 2026-05-05 13:32 | 50.90346 | 0.34557 | 9326 ft | 289 kts | 309° |
| 2026-05-05 13:32 | 50.91589 | 0.32074 | 8654 ft | 286 kts | 309° |
| 2026-05-05 13:32 | 50.92807 | 0.29647 | 8248 ft | 273 kts | 309° |
| 2026-05-05 13:33 | 50.93948 | 0.27379 | 8045 ft | 256 kts | 309° |
| 2026-05-05 13:33 | 50.94843 | 0.24995 | 7601 ft | 250 kts | 294° |
| 2026-05-05 13:33 | 50.95459 | 0.22427 | 7064 ft | 249 kts | 292° |
| 2026-05-05 13:33 | 50.96052 | 0.19861 | 6575 ft | 245 kts | 291° |
| 2026-05-05 13:34 | 50.96633 | 0.17353 | 6389 ft | 242 kts | 292° |
| 2026-05-05 13:34 | 50.97219 | 0.14840 | 6219 ft | 243 kts | 292° |
| 2026-05-05 13:34 | 50.97803 | 0.12325 | 6039 ft | 243 kts | 292° |
| 2026-05-05 13:34 | 50.98390 | 0.09804 | 5853 ft | 245 kts | 292° |
| 2026-05-05 13:35 | 50.98974 | 0.07289 | 5733 ft | 242 kts | 292° |
| 2026-05-05 13:35 | 50.99557 | 0.04780 | 5552 ft | 243 kts | 294° |
| 2026-05-05 13:35 | 51.00142 | 0.02260 | 5383 ft | 243 kts | 294° |
| 2026-05-05 13:35 | 51.00723 | -0.00262 | 5163 ft | 243 kts | 293° |
| 2026-05-05 13:36 | 51.01304 | -0.02778 | 4988 ft | 243 kts | 293° |
| 2026-05-05 13:36 | 51.01886 | -0.05288 | 4814 ft | 241 kts | 292° |
| 2026-05-05 13:36 | 51.02463 | -0.07780 | 4649 ft | 240 kts | 292° |
| 2026-05-05 13:36 | 51.03036 | -0.10270 | 4458 ft | 239 kts | 292° |
| 2026-05-05 13:37 | 51.03601 | -0.12715 | 4303 ft | 239 kts | 291° |
| 2026-05-05 13:37 | 51.04169 | -0.15170 | 4124 ft | 236 kts | 292° |
| 2026-05-05 13:37 | 51.04733 | -0.17611 | 3964 ft | 235 kts | 292° |
| 2026-05-05 13:37 | 51.05297 | -0.20050 | 3797 ft | 236 kts | 294° |
| 2026-05-05 13:38 | 51.05856 | -0.22487 | 3623 ft | 234 kts | 293° |
| 2026-05-05 13:38 | 51.06410 | -0.24906 | 3458 ft | 232 kts | 292° |
| 2026-05-05 13:38 | 51.06959 | -0.27320 | 3284 ft | 232 kts | 293° |
| 2026-05-05 13:38 | 51.07508 | -0.29726 | 3125 ft | 231 kts | 293° |
| 2026-05-05 13:39 | 51.08056 | -0.32120 | 3035 ft | 229 kts | 294° |
| 2026-05-05 13:39 | 51.08583 | -0.34432 | 2996 ft | 215 kts | 293° |
| 2026-05-05 13:39 | 51.09121 | -0.36573 | 2993 ft | 204 kts | 306° |
| 2026-05-05 13:39 | 51.10125 | -0.38013 | 2997 ft | 193 kts | 345° |
| 2026-05-05 13:40 | 51.11408 | -0.37891 | 3005 ft | 189 kts | 31° |
| 2026-05-05 13:40 | 51.12281 | -0.36396 | 2816 ft | 184 kts | 62° |
| 2026-05-05 13:40 | 51.12685 | -0.34497 | 2509 ft | 178 kts | 74° |
| 2026-05-05 13:40 | 51.12944 | -0.32599 | 2154 ft | 175 kts | 75° |
| 2026-05-05 13:41 | 51.13200 | -0.30693 | 1718 ft | 177 kts | 74° |
| 2026-05-05 13:41 | 51.13464 | -0.28772 | 1323 ft | 176 kts | 76° |
| 2026-05-05 13:41 | 51.13719 | -0.26925 | 1032 ft | 167 kts | 75° |
| 2026-05-05 13:41 | 51.13964 | -0.25157 | 802 ft | 160 kts | 76° |
| 2026-05-05 13:42 | 51.14192 | -0.23485 | 581 ft | 150 kts | 75° |
| 2026-05-05 13:42 | 51.14406 | -0.21903 | 363 ft | 144 kts | 77° |
| 2026-05-05 13:42 | 51.14611 | -0.20327 | 787 ft | 154 kts | 75° |
| 2026-05-05 13:42 | 51.14830 | -0.18509 | 1491 ft | 177 kts | 77° |
| 2026-05-05 13:43 | 51.15052 | -0.16529 | 2125 ft | 192 kts | 77° |
| 2026-05-05 13:43 | 51.15299 | -0.14305 | 2719 ft | 211 kts | 78° |
| 2026-05-05 13:43 | 51.15556 | -0.11960 | 2974 ft | 216 kts | 78° |
| 2026-05-05 13:43 | 51.15826 | -0.09622 | 2998 ft | 214 kts | 79° |
| 2026-05-05 13:44 | 51.15787 | -0.07244 | 3000 ft | 217 kts | 103° |
| 2026-05-05 13:44 | 51.15047 | -0.05151 | 2998 ft | 223 kts | 134° |
| 2026-05-05 13:44 | 51.13693 | -0.03942 | 3002 ft | 230 kts | 166° |
| 2026-05-05 13:44 | 51.12107 | -0.04079 | 3004 ft | 232 kts | 201° |
| 2026-05-05 13:45 | 51.10815 | -0.05552 | 2996 ft | 230 kts | 235° |
| 2026-05-05 13:45 | 51.10209 | -0.07857 | 3008 ft | 227 kts | 266° |
| 2026-05-05 13:45 | 51.10213 | -0.10338 | 3005 ft | 224 kts | 275° |
| 2026-05-05 13:45 | 51.10290 | -0.12821 | 3001 ft | 225 kts | 276° |
| 2026-05-05 13:46 | 51.10366 | -0.15305 | 3004 ft | 225 kts | 276° |
| 2026-05-05 13:46 | 51.10434 | -0.17800 | 2991 ft | 226 kts | 276° |
| 2026-05-05 13:46 | 51.10499 | -0.20292 | 3002 ft | 226 kts | 275° |
| 2026-05-05 13:46 | 51.10563 | -0.22802 | 3005 ft | 227 kts | 276° |
| 2026-05-05 13:47 | 51.10631 | -0.25307 | 2899 ft | 226 kts | 276° |
| 2026-05-05 13:47 | 51.10695 | -0.27794 | 2792 ft | 225 kts | 275° |
| 2026-05-05 13:47 | 51.10451 | -0.30254 | 2678 ft | 228 kts | 252° |
| 2026-05-05 13:47 | 51.09889 | -0.32615 | 2564 ft | 228 kts | 251° |
| 2026-05-05 13:48 | 51.09319 | -0.34976 | 2462 ft | 229 kts | 251° |
| 2026-05-05 13:48 | 51.08759 | -0.37317 | 2360 ft | 224 kts | 251° |
| 2026-05-05 13:48 | 51.08331 | -0.39639 | 2231 ft | 215 kts | 270° |
| 2026-05-05 13:48 | 51.08669 | -0.41828 | 2127 ft | 199 kts | 308° |
| 2026-05-05 13:49 | 51.09709 | -0.43128 | 2069 ft | 190 kts | 348° |
| 2026-05-05 13:49 | 51.10883 | -0.42835 | 2042 ft | 165 kts | 38° |
| 2026-05-05 13:49 | 51.11506 | -0.41442 | 2024 ft | 150 kts | 64° |
| 2026-05-05 13:49 | 51.11867 | -0.39796 | 2030 ft | 170 kts | 71° |
| 2026-05-05 13:50 | 51.12172 | -0.37960 | 2013 ft | 176 kts | 73° |
| 2026-05-05 13:50 | 51.12449 | -0.36050 | 2007 ft | 178 kts | 74° |
| 2026-05-05 13:50 | 51.12710 | -0.34171 | 1892 ft | 172 kts | 75° |
| 2026-05-05 13:50 | 51.12966 | -0.32331 | 1701 ft | 169 kts | 75° |
| 2026-05-05 13:51 | 51.13219 | -0.30517 | 1483 ft | 167 kts | 74° |
| 2026-05-05 13:51 | 51.13472 | -0.28705 | 1252 ft | 165 kts | 76° |
| 2026-05-05 13:51 | 51.13713 | -0.26970 | 1026 ft | 158 kts | 74° |
| 2026-05-05 13:51 | 51.13944 | -0.25298 | 817 ft | 150 kts | 75° |
| 2026-05-05 13:52 | 51.14164 | -0.23716 | 616 ft | 144 kts | 74° |
| 2026-05-05 13:52 | 51.14385 | -0.22190 | 409 ft | 141 kts | 77° |
| 2026-05-05 13:52 | 51.14589 | -0.20672 | 244 ft | 139 kts | 75° |
| 2026-05-05 13:52 | 51.14787 | -0.19257 | 214 ft | 116 kts | 77° |
| 2026-05-05 13:53 | 51.14901 | -0.18417 | 213 ft | 44 kts | 78° |
| 2026-05-05 13:53 | 51.14957 | -0.18038 | 216 ft | 26 kts | 69° |
| 2026-05-05 13:53 | 51.15045 | -0.17819 | 212 ft | 20 kts | 52° |
| 2026-05-05 13:53 | 51.15117 | -0.17751 | 205 ft | 10 kts | 352° |
| 2026-05-05 13:54 | 51.15138 | -0.17756 | 205 ft | 2 kts | 352° |
| 2026-05-05 13:54 | 51.15153 | -0.17760 | 205 ft | 6 kts | 349° |
| 2026-05-05 13:54 | 51.15215 | -0.17778 | 208 ft | 8 kts | 351° |
| 2026-05-05 13:54 | 51.15263 | -0.17730 | 204 ft | 11 kts | 73° |
| 2026-05-05 13:55 | 51.15280 | -0.17593 | 203 ft | 14 kts | 77° |
| 2026-05-05 13:55 | 51.15299 | -0.17437 | 208 ft | 15 kts | 80° |
| 2026-05-05 13:55 | 51.15357 | -0.17366 | 205 ft | 9 kts | 343° |
| 2026-05-05 13:55 | 51.15425 | -0.17395 | 204 ft | 11 kts | 347° |
| 2026-05-05 13:56 | 51.15512 | -0.17426 | 204 ft | 14 kts | 348° |
| 2026-05-05 13:56 | 51.15620 | -0.17463 | 204 ft | 17 kts | 348° |
| 2026-05-05 13:56 | 51.15722 | -0.17498 | 212 ft | 9 kts | 348° |
| 2026-05-05 13:56 | 51.15752 | -0.17574 | 208 ft | 7 kts | 264° |
| 2026-05-05 13:57 | 51.15729 | -0.17628 | 208 ft | 6 kts | 188° |
| 2026-05-05 13:57 | 51.15692 | -0.17617 | 209 ft | 5 kts | 168° |
| 2026-05-05 13:57 | 51.15667 | -0.17608 | 214 ft | 1 kts | 168° |
| 2026-05-05 13:57 | 51.15658 | -0.17605 | 214 ft | 0 kts | 168° |